Time;durP1;ratioP1;P1;durP2;ratioP2;P2;SDS_P1;SDS_P2;PMS_P1;PMS_P2;Temp;Humidity;BMP_temperature;BMP_pressure;BME280_temperature;BME280_humidity;BME280_pressure;Samples;Min_cycle;Max_cycle;Signal;HPM_P1;HPM_P2
2023/07/10 00:00:55;;;;;;;3.37;2.83;;;;;;;;;;5103462;28;20199;-76
2023/07/10 00:03:22;;;;;;;4.40;3.03;;;;;;;;;;5097352;28;20196;-76
2023/07/10 00:05:49;;;;;;;4.93;3.37;;;;;;;;;;5076719;28;20207;-76
2023/07/10 00:08:16;;;;;;;3.47;3.17;;;;;;;;;;5059210;28;20206;-76
2023/07/10 00:10:44;;;;;;;3.50;3.17;;;;;;;;;;5093023;28;20260;-76
2023/07/10 00:13:13;;;;;;;3.23;2.93;;;;;;;;;;5103549;28;20215;-76
2023/07/10 00:15:41;;;;;;;4.13;3.17;;;;;;;;;;5090761;28;20204;-76
2023/07/10 00:18:12;;;;;;;3.40;2.67;;;;;;;;;;5103125;28;20792;-76
2023/07/10 00:20:39;;;;;;;4.00;2.60;;;;;;;;;;5072554;28;20211;-76
2023/07/10 00:23:06;;;;;;;3.57;3.27;;;;;;;;;;5081165;28;20195;-76
2023/07/10 00:25:33;;;;;;;3.77;3.37;;;;;;;;;;5092316;28;20208;-76
2023/07/10 00:28:00;;;;;;;6.10;3.17;;;;;;;;;;5086871;28;20261;-76
2023/07/10 00:30:29;;;;;;;3.20;2.87;;;;;;;;;;5075614;28;20203;-76
2023/07/10 00:32:56;;;;;;;3.50;3.20;;;;;;;;;;5097199;28;20203;-76
2023/07/10 00:35:25;;;;;;;7.50;3.40;;;;;;;;;;5096596;28;20203;-76
2023/07/10 00:38:01;;;;;;;3.67;3.37;;;;;;;;;;5104140;28;20306;-76
2023/07/10 00:40:30;;;;;;;4.10;2.90;;;;;;;;;;5107479;28;20215;-77
2023/07/10 00:43:01;;;;;;;4.17;3.47;;;;;;;;;;5072190;28;20281;-76
2023/07/10 00:45:30;;;;;;;3.67;3.23;;;;;;;;;;5094657;28;20204;-76
2023/07/10 00:48:04;;;;;;;3.53;3.23;;;;;;;;;;5088933;28;20211;-76
2023/07/10 00:50:36;;;;;;;3.30;3.00;;;;;;;;;;5085640;28;20320;-77
2023/07/10 00:53:05;;;;;;;5.67;2.93;;;;;;;;;;5087336;28;20211;-76
2023/07/10 00:55:34;;;;;;;6.20;3.23;;;;;;;;;;5075224;28;20209;-77
2023/07/10 00:58:08;;;;;;;3.10;2.80;;;;;;;;;;5085184;28;20216;-76
2023/07/10 01:00:36;;;;;;;3.60;2.60;;;;;;;;;;5074999;28;20208;-76
2023/07/10 01:03:03;;;;;;;3.40;2.97;;;;;;;;;;5072480;28;20216;-76
2023/07/10 01:05:33;;;;;;;4.13;2.77;;;;;;;;;;5074968;28;20625;-76
2023/07/10 01:08:01;;;;;;;3.83;3.07;;;;;;;;;;5092655;28;20250;-76
2023/07/10 01:10:28;;;;;;;3.73;3.03;;;;;;;;;;5093952;28;20354;-76
2023/07/10 01:12:56;;;;;;;3.60;2.83;;;;;;;;;;5080160;28;20205;-76
2023/07/10 01:15:23;;;;;;;3.73;3.13;;;;;;;;;;5073898;28;20208;-76
2023/07/10 01:17:51;;;;;;;5.43;2.60;;;;;;;;;;5086856;28;20204;-76
2023/07/10 01:20:33;;;;;;;3.23;2.60;;;;;;;;;;5072148;28;20212;-76
2023/07/10 01:23:02;;;;;;;3.27;2.93;;;;;;;;;;5055363;28;20205;-76
2023/07/10 01:25:30;;;;;;;2.90;2.70;;;;;;;;;;5073658;28;20247;-76
2023/07/10 01:27:57;;;;;;;2.70;2.50;;;;;;;;;;5082133;28;20197;-76
2023/07/10 01:30:28;;;;;;;3.60;3.20;;;;;;;;;;5071953;28;20642;-76
2023/07/10 01:32:56;;;;;;;3.50;3.20;;;;;;;;;;5073425;28;20205;-76
2023/07/10 01:35:25;;;;;;;3.30;3.00;;;;;;;;;;5072904;28;20193;-76
2023/07/10 01:37:52;;;;;;;3.97;3.33;;;;;;;;;;5083356;28;20208;-76
2023/07/10 01:40:26;;;;;;;4.17;3.13;;;;;;;;;;5074825;28;20200;-77
2023/07/10 01:42:53;;;;;;;3.40;3.00;;;;;;;;;;5093115;28;20196;-76
2023/07/10 01:45:20;;;;;;;5.60;3.03;;;;;;;;;;5074813;28;20200;-76
2023/07/10 01:47:48;;;;;;;3.37;3.07;;;;;;;;;;5081164;28;20205;-76
2023/07/10 01:50:15;;;;;;;7.03;3.57;;;;;;;;;;5040149;28;20616;-76
2023/07/10 01:52:42;;;;;;;4.87;3.17;;;;;;;;;;5052839;28;20205;-76
2023/07/10 01:55:09;;;;;;;3.47;3.17;;;;;;;;;;5058861;28;20587;-76
2023/07/10 01:57:38;;;;;;;3.37;3.07;;;;;;;;;;5072490;28;20205;-75
2023/07/10 02:00:06;;;;;;;4.77;3.60;;;;;;;;;;5052710;28;20226;-76
2023/07/10 02:02:33;;;;;;;3.30;3.00;;;;;;;;;;5065351;28;20205;-76
2023/07/10 02:05:00;;;;;;;3.33;3.03;;;;;;;;;;5052682;28;20202;-76
2023/07/10 02:07:27;;;;;;;5.20;2.90;;;;;;;;;;5066170;28;20216;-76
2023/07/10 02:09:54;;;;;;;3.97;3.20;;;;;;;;;;5063947;28;20240;-76
2023/07/10 02:12:20;;;;;;;3.37;2.60;;;;;;;;;;5053057;28;20210;-77
2023/07/10 02:14:49;;;;;;;3.20;2.83;;;;;;;;;;5072208;28;20201;-76
2023/07/10 02:17:16;;;;;;;3.23;2.97;;;;;;;;;;5070056;28;20687;-76
2023/07/10 02:19:43;;;;;;;7.93;3.20;;;;;;;;;;5051078;28;20616;-76
2023/07/10 02:22:10;;;;;;;8.93;2.93;;;;;;;;;;5064128;28;20672;-76
2023/07/10 02:24:37;;;;;;;3.10;2.80;;;;;;;;;;5061081;28;20197;-76
2023/07/10 02:27:04;;;;;;;3.13;2.83;;;;;;;;;;5062438;28;20217;-76
2023/07/10 02:29:31;;;;;;;3.17;2.70;;;;;;;;;;5041846;28;20673;-76
2023/07/10 02:32:01;;;;;;;6.17;3.20;;;;;;;;;;5053048;28;20202;-78
2023/07/10 02:34:27;;;;;;;4.20;3.03;;;;;;;;;;5062434;28;20206;-76
2023/07/10 02:36:54;;;;;;;3.03;2.83;;;;;;;;;;5051795;28;20215;-76
2023/07/10 02:39:21;;;;;;;3.50;3.20;;;;;;;;;;5059688;28;20232;-77
2023/07/10 02:41:48;;;;;;;3.50;2.60;;;;;;;;;;5071991;28;20197;-77
2023/07/10 02:44:15;;;;;;;3.50;3.20;;;;;;;;;;5062258;28;20210;-76
2023/07/10 02:46:42;;;;;;;3.67;3.37;;;;;;;;;;5065733;28;21553;-76
2023/07/10 02:49:11;;;;;;;2.90;2.70;;;;;;;;;;5063048;28;20232;-76
2023/07/10 02:51:38;;;;;;;3.53;3.27;;;;;;;;;;5091229;28;20219;-76
2023/07/10 02:54:12;;;;;;;2.83;2.63;;;;;;;;;;5089381;28;20196;-76
2023/07/10 02:56:39;;;;;;;2.90;2.70;;;;;;;;;;5091169;28;20578;-76
2023/07/10 02:59:06;;;;;;;3.40;3.00;;;;;;;;;;5089908;28;20224;-76
2023/07/10 03:01:33;;;;;;;4.27;2.90;;;;;;;;;;5090242;28;20208;-77
2023/07/10 03:04:00;;;;;;;3.23;3.00;;;;;;;;;;5090355;28;20700;-77
2023/07/10 03:06:28;;;;;;;4.17;3.17;;;;;;;;;;5072848;28;20197;-76
2023/07/10 03:08:55;;;;;;;3.27;2.97;;;;;;;;;;5090765;28;20208;-77
2023/07/10 03:11:23;;;;;;;5.90;3.30;;;;;;;;;;5077688;28;20637;-76
2023/07/10 03:13:50;;;;;;;3.30;3.00;;;;;;;;;;5091614;28;20208;-76
2023/07/10 03:16:17;;;;;;;3.50;3.27;;;;;;;;;;5085187;28;20201;-77
2023/07/10 03:18:44;;;;;;;6.97;3.30;;;;;;;;;;5076936;28;20224;-76
2023/07/10 03:21:11;;;;;;;3.40;2.90;;;;;;;;;;5076016;28;20201;-77
2023/07/10 03:23:40;;;;;;;6.80;2.97;;;;;;;;;;5081711;28;20200;-76
2023/07/10 03:26:07;;;;;;;2.93;2.50;;;;;;;;;;5068885;28;20216;-77
2023/07/10 03:28:38;;;;;;;9.80;3.43;;;;;;;;;;5068796;28;20208;-76
2023/07/10 03:31:06;;;;;;;3.50;3.20;;;;;;;;;;5089964;28;20207;-77
2023/07/10 03:33:34;;;;;;;3.27;3.07;;;;;;;;;;5089036;28;20200;-77
2023/07/10 03:36:02;;;;;;;5.13;2.93;;;;;;;;;;5077481;28;20200;-78
2023/07/10 03:38:29;;;;;;;4.30;3.07;;;;;;;;;;5090506;28;20204;-76
2023/07/10 03:40:58;;;;;;;4.43;3.50;;;;;;;;;;5081283;28;20212;-76
2023/07/10 03:43:26;;;;;;;4.37;3.00;;;;;;;;;;5069576;28;20270;-80
2023/07/10 03:45:53;;;;;;;5.57;3.60;;;;;;;;;;5070995;28;20200;-80
2023/07/10 03:48:21;;;;;;;6.93;3.20;;;;;;;;;;5070584;28;20280;-81
2023/07/10 03:50:48;;;;;;;4.73;3.73;;;;;;;;;;5100551;28;20733;-80
2023/07/10 03:53:15;;;;;;;2.57;2.37;;;;;;;;;;5097361;28;20265;-81
2023/07/10 03:55:49;;;;;;;5.70;3.57;;;;;;;;;;5066036;28;20612;-80
2023/07/10 03:58:25;;;;;;;3.60;3.30;;;;;;;;;;5090692;28;20204;-80
2023/07/10 04:00:52;;;;;;;5.20;3.73;;;;;;;;;;5091167;28;20233;-81
2023/07/10 04:03:21;;;;;;;7.50;3.20;;;;;;;;;;5057246;28;20253;-80
2023/07/10 04:05:52;;;;;;;5.10;3.37;;;;;;;;;;5110765;28;20203;-81
2023/07/10 04:08:19;;;;;;;5.27;3.50;;;;;;;;;;5057187;28;20561;-81
2023/07/10 04:10:50;;;;;;;3.73;3.13;;;;;;;;;;5103273;28;20219;-80
2023/07/10 04:13:17;;;;;;;3.57;3.27;;;;;;;;;;5079657;28;20208;-82
2023/07/10 04:15:58;;;;;;;6.37;3.37;;;;;;;;;;5078993;28;20195;-81
2023/07/10 04:18:27;;;;;;;4.03;3.43;;;;;;;;;;5094635;28;20204;-82
2023/07/10 04:20:54;;;;;;;3.80;3.27;;;;;;;;;;5102142;28;20235;-81
2023/07/10 04:23:21;;;;;;;3.67;3.27;;;;;;;;;;5072010;28;20260;-81
2023/07/10 04:25:49;;;;;;;3.53;3.23;;;;;;;;;;5092300;28;20270;-79
2023/07/10 04:28:16;;;;;;;4.00;3.70;;;;;;;;;;5075814;28;20674;-79
2023/07/10 04:30:45;;;;;;;5.73;3.83;;;;;;;;;;5076090;28;20207;-79
2023/07/10 04:33:14;;;;;;;5.27;3.80;;;;;;;;;;5092381;28;20211;-79
2023/07/10 04:35:41;;;;;;;4.80;3.97;;;;;;;;;;5104487;28;20281;-79
2023/07/10 04:38:08;;;;;;;6.53;3.83;;;;;;;;;;5072689;28;20333;-79
2023/07/10 04:40:35;;;;;;;6.87;4.07;;;;;;;;;;5103794;28;20227;-80
2023/07/10 04:43:04;;;;;;;3.90;3.60;;;;;;;;;;5069316;28;20264;-79
2023/07/10 04:45:31;;;;;;;5.20;3.50;;;;;;;;;;5110378;28;20199;-79
2023/07/10 04:48:00;;;;;;;4.83;3.60;;;;;;;;;;5092143;28;20256;-80
2023/07/10 04:50:27;;;;;;;5.37;3.80;;;;;;;;;;5090688;28;20228;-79
2023/07/10 04:52:53;;;;;;;10.10;5.87;;;;;;;;;;5102343;28;20264;-79
2023/07/10 04:55:23;;;;;;;3.87;3.47;;;;;;;;;;5098305;28;20264;-79
2023/07/10 04:57:49;;;;;;;4.43;3.40;;;;;;;;;;5095424;28;20205;-80
2023/07/10 05:00:17;;;;;;;4.17;3.60;;;;;;;;;;5089889;28;20224;-80
2023/07/10 05:02:44;;;;;;;3.70;3.40;;;;;;;;;;5091040;28;20574;-80
2023/07/10 05:05:12;;;;;;;7.37;3.40;;;;;;;;;;5101349;28;20207;-79
2023/07/10 05:07:39;;;;;;;3.37;3.17;;;;;;;;;;5091595;28;20211;-79
2023/07/10 05:10:06;;;;;;;3.90;3.60;;;;;;;;;;5100934;28;20200;-79
2023/07/10 05:12:33;;;;;;;6.07;3.90;;;;;;;;;;5106189;28;20253;-79
2023/07/10 05:14:59;;;;;;;5.50;3.60;;;;;;;;;;5113099;28;20258;-79
2023/07/10 05:17:26;;;;;;;3.60;3.30;;;;;;;;;;5113623;28;20524;-79
2023/07/10 05:19:53;;;;;;;6.10;3.60;;;;;;;;;;5114376;28;20227;-79
2023/07/10 05:22:21;;;;;;;5.07;3.40;;;;;;;;;;5097348;28;20203;-80
2023/07/10 05:24:48;;;;;;;4.70;3.70;;;;;;;;;;5103863;28;20700;-79
2023/07/10 05:27:15;;;;;;;4.17;3.40;;;;;;;;;;5099253;28;20196;-79
2023/07/10 05:29:42;;;;;;;3.70;3.40;;;;;;;;;;5113957;28;20207;-79
2023/07/10 05:32:09;;;;;;;3.40;3.07;;;;;;;;;;5113337;28;20203;-79
2023/07/10 05:34:36;;;;;;;4.40;3.40;;;;;;;;;;5104403;28;20200;-79
2023/07/10 05:37:03;;;;;;;4.70;3.67;;;;;;;;;;5106917;28;20196;-79
2023/07/10 05:39:31;;;;;;;3.60;3.27;;;;;;;;;;5103669;28;20238;-79
2023/07/10 05:41:59;;;;;;;7.33;3.10;;;;;;;;;;5099776;28;20196;-79
2023/07/10 05:44:26;;;;;;;3.97;3.67;;;;;;;;;;5113548;28;20586;-79
2023/07/10 05:46:55;;;;;;;6.43;3.83;;;;;;;;;;5095388;28;20586;-80
2023/07/10 05:49:23;;;;;;;4.10;3.80;;;;;;;;;;5093274;28;20231;-79
2023/07/10 05:51:49;;;;;;;9.80;3.73;;;;;;;;;;5106927;28;20208;-79
2023/07/10 05:54:16;;;;;;;3.93;3.63;;;;;;;;;;5105032;28;20206;-79
2023/07/10 05:56:44;;;;;;;3.13;2.93;;;;;;;;;;5094527;28;20204;-79
2023/07/10 05:59:12;;;;;;;5.27;3.83;;;;;;;;;;5093132;28;20201;-79
2023/07/10 06:01:39;;;;;;;3.97;3.37;;;;;;;;;;5112324;28;20210;-79
2023/07/10 06:04:05;;;;;;;4.27;3.43;;;;;;;;;;5100123;28;20197;-80
2023/07/10 06:06:32;;;;;;;5.40;3.07;;;;;;;;;;5106292;28;20593;-79
2023/07/10 06:08:59;;;;;;;4.13;3.73;;;;;;;;;;5105307;28;20669;-80
2023/07/10 06:11:26;;;;;;;4.87;3.50;;;;;;;;;;5112965;28;20212;-79
2023/07/10 06:13:54;;;;;;;4.03;3.70;;;;;;;;;;5099392;28;20200;-80
2023/07/10 06:16:21;;;;;;;3.90;3.60;;;;;;;;;;5099170;28;20203;-79
2023/07/10 06:18:48;;;;;;;4.37;3.37;;;;;;;;;;5099106;28;20208;-79
2023/07/10 06:21:15;;;;;;;4.60;3.17;;;;;;;;;;5092738;28;20277;-80
2023/07/10 06:23:41;;;;;;;4.80;3.67;;;;;;;;;;5105862;28;20199;-80
2023/07/10 06:26:08;;;;;;;3.90;3.40;;;;;;;;;;5099509;28;20206;-79
2023/07/10 06:28:35;;;;;;;3.10;2.90;;;;;;;;;;5098988;28;20204;-80
2023/07/10 06:31:05;;;;;;;4.20;3.20;;;;;;;;;;5113089;28;20210;-79
2023/07/10 06:33:32;;;;;;;2.73;2.53;;;;;;;;;;5110918;28;20760;-79
2023/07/10 06:35:59;;;;;;;3.53;3.20;;;;;;;;;;5100250;28;20204;-79
2023/07/10 06:38:28;;;;;;;5.30;3.10;;;;;;;;;;5097741;28;20200;-80
2023/07/10 06:40:55;;;;;;;4.30;3.10;;;;;;;;;;5100529;28;20244;-80
2023/07/10 06:43:23;;;;;;;4.77;3.27;;;;;;;;;;5098491;28;20742;-80
2023/07/10 06:45:50;;;;;;;5.00;3.30;;;;;;;;;;5103213;28;20204;-79
2023/07/10 06:48:18;;;;;;;3.17;2.93;;;;;;;;;;5094119;28;20200;-79
2023/07/10 06:50:47;;;;;;;4.57;3.20;;;;;;;;;;5103101;28;20278;-80
2023/07/10 06:53:14;;;;;;;4.30;3.60;;;;;;;;;;5091697;28;20728;-80
2023/07/10 06:55:44;;;;;;;5.07;3.37;;;;;;;;;;5091787;28;20196;-80
2023/07/10 06:58:15;;;;;;;3.67;3.00;;;;;;;;;;5105443;28;20674;-80
2023/07/10 07:00:43;;;;;;;3.17;2.97;;;;;;;;;;5091722;28;20281;-79
2023/07/10 07:03:10;;;;;;;3.57;3.20;;;;;;;;;;5105195;28;20208;-80
2023/07/10 07:05:41;;;;;;;3.13;2.80;;;;;;;;;;5104030;28;20673;-80
2023/07/10 07:08:08;;;;;;;3.20;2.93;;;;;;;;;;5098299;28;20196;-80
2023/07/10 07:10:35;;;;;;;4.88;3.08;;;;;;;;;;5098452;28;20698;-80
2023/07/10 07:13:02;;;;;;;4.93;3.00;;;;;;;;;;5098371;28;20673;-80
2023/07/10 07:15:29;;;;;;;4.13;2.95;;;;;;;;;;5097982;28;20200;-80
2023/07/10 07:17:56;;;;;;;3.63;2.95;;;;;;;;;;5091212;28;20720;-80
2023/07/10 07:20:23;;;;;;;3.83;3.47;;;;;;;;;;5105282;28;20226;-80
2023/07/10 07:22:51;;;;;;;4.18;3.15;;;;;;;;;;5091243;28;20237;-80
2023/07/10 07:25:18;;;;;;;3.30;3.10;;;;;;;;;;5092408;28;20213;-80
2023/07/10 07:27:45;;;;;;;3.15;2.85;;;;;;;;;;5103823;28;20205;-80
2023/07/10 07:30:13;;;;;;;4.47;3.75;;;;;;;;;;5105247;28;20576;-80
2023/07/10 07:32:40;;;;;;;3.20;2.90;;;;;;;;;;5098555;28;20196;-80
2023/07/10 07:35:08;;;;;;;6.25;2.92;;;;;;;;;;5096593;28;20200;-80
2023/07/10 07:37:35;;;;;;;4.70;3.25;;;;;;;;;;5098498;28;20210;-80
2023/07/10 07:40:06;;;;;;;4.85;4.20;;;;;;;;;;5111182;28;20215;-81
2023/07/10 07:42:33;;;;;;;3.70;3.40;;;;;;;;;;5102254;28;20215;-80
2023/07/10 07:45:00;;;;;;;3.50;3.20;;;;;;;;;;5105036;28;20203;-80
2023/07/10 07:47:27;;;;;;;5.28;3.58;;;;;;;;;;5100027;28;20203;-80
2023/07/10 07:49:54;;;;;;;4.75;3.92;;;;;;;;;;5094571;28;20718;-81
2023/07/10 07:52:21;;;;;;;6.38;3.70;;;;;;;;;;5091035;28;20250;-80
2023/07/10 07:54:48;;;;;;;3.80;3.42;;;;;;;;;;5107272;28;20199;-80
2023/07/10 07:57:16;;;;;;;3.65;3.35;;;;;;;;;;5101092;28;20204;-80
2023/07/10 07:59:43;;;;;;;5.47;2.92;;;;;;;;;;5094700;28;20206;-81
2023/07/10 08:02:12;;;;;;;5.10;3.45;;;;;;;;;;5100750;28;20200;-81
2023/07/10 08:04:41;;;;;;;3.08;2.83;;;;;;;;;;5108158;28;20211;-81
2023/07/10 08:07:08;;;;;;;3.50;3.20;;;;;;;;;;5099955;28;20204;-80
2023/07/10 08:09:35;;;;;;;3.47;3.17;;;;;;;;;;5104395;28;20578;-80
2023/07/10 08:12:01;;;;;;;3.60;3.22;;;;;;;;;;5101882;28;20631;-80
2023/07/10 08:14:29;;;;;;;3.72;3.53;;;;;;;;;;5091876;28;20192;-81
2023/07/10 08:16:56;;;;;;;3.55;3.25;;;;;;;;;;5090868;28;20631;-81
2023/07/10 08:19:23;;;;;;;5.53;3.60;;;;;;;;;;5095653;28;20686;-81
2023/07/10 08:21:50;;;;;;;3.80;3.42;;;;;;;;;;5098536;28;20231;-81
2023/07/10 08:24:17;;;;;;;4.65;3.35;;;;;;;;;;5103937;28;20196;-81
2023/07/10 08:26:43;;;;;;;3.72;3.42;;;;;;;;;;5090634;28;20207;-81
2023/07/10 08:29:24;;;;;;;4.60;3.13;;;;;;;;;;5090625;28;20200;-81
2023/07/10 08:31:53;;;;;;;4.15;3.75;;;;;;;;;;5104655;28;20212;-81
2023/07/10 08:34:19;;;;;;;3.33;3.03;;;;;;;;;;5102870;28;20201;-81
2023/07/10 08:36:46;;;;;;;5.53;3.67;;;;;;;;;;5103840;28;20215;-81
2023/07/10 08:39:14;;;;;;;4.22;3.38;;;;;;;;;;5098886;28;20210;-81
2023/07/10 08:41:41;;;;;;;4.32;3.45;;;;;;;;;;5095394;28;20224;-81
2023/07/10 08:44:11;;;;;;;3.70;3.28;;;;;;;;;;5098941;28;20253;-81
2023/07/10 08:46:38;;;;;;;3.38;3.13;;;;;;;;;;5108355;28;20200;-81
2023/07/10 08:49:14;;;;;;;5.20;3.80;;;;;;;;;;5091369;28;20235;-81
2023/07/10 08:51:48;;;;;;;3.80;3.47;;;;;;;;;;5098387;28;20210;-81
2023/07/10 08:54:18;;;;;;;3.28;3.05;;;;;;;;;;5102508;28;20212;-81
2023/07/10 08:56:48;;;;;;;5.03;3.33;;;;;;;;;;5094504;28;20208;-81
2023/07/10 08:59:33;;;;;;;3.78;3.47;;;;;;;;;;5094243;28;20204;-81
2023/07/10 09:02:00;;;;;;;3.80;3.60;;;;;;;;;;5103067;28;20222;-81
2023/07/10 09:04:30;;;;;;;3.17;2.88;;;;;;;;;;5112096;28;20208;-81
2023/07/10 09:06:59;;;;;;;4.85;3.95;;;;;;;;;;5103390;28;20200;-81
2023/07/10 09:09:32;;;;;;;5.78;4.10;;;;;;;;;;5111170;28;20236;-81
2023/07/10 09:12:02;;;;;;;3.92;3.63;;;;;;;;;;5104460;28;20202;-81
2023/07/10 09:14:37;;;;;;;3.70;3.08;;;;;;;;;;5114349;28;20300;-81
2023/07/10 09:17:16;;;;;;;3.78;3.33;;;;;;;;;;5101488;28;20226;-82
2023/07/10 09:19:49;;;;;;;4.13;3.83;;;;;;;;;;5101749;28;20210;-81
2023/07/10 09:22:16;;;;;;;3.90;3.53;;;;;;;;;;5112243;28;20230;-82
2023/07/10 09:24:43;;;;;;;4.53;3.90;;;;;;;;;;5093879;28;20200;-82
2023/07/10 09:27:13;;;;;;;3.90;3.20;;;;;;;;;;5106969;28;20923;-81
2023/07/10 09:29:40;;;;;;;3.83;3.42;;;;;;;;;;5103043;28;20203;-82
2023/07/10 09:32:11;;;;;;;3.50;3.20;;;;;;;;;;5099798;28;20273;-81
2023/07/10 09:34:42;;;;;;;4.72;2.83;;;;;;;;;;5103307;28;20644;-81
2023/07/10 09:37:12;;;;;;;3.88;2.33;;;;;;;;;;5106543;28;20211;-81
2023/07/10 09:39:39;;;;;;;3.75;2.75;;;;;;;;;;5105295;28;20214;-82
2023/07/10 09:42:13;;;;;;;3.47;2.95;;;;;;;;;;5108243;28;20228;-82
2023/07/10 09:44:46;;;;;;;3.35;3.05;;;;;;;;;;5106145;28;20215;-81
2023/07/10 09:47:14;;;;;;;4.78;2.58;;;;;;;;;;5106800;28;20193;-82
2023/07/10 09:49:46;;;;;;;2.40;2.20;;;;;;;;;;5093946;28;20232;-82
2023/07/10 09:52:22;;;;;;;3.20;3.00;;;;;;;;;;5113155;28;20191;-81
2023/07/10 09:54:49;;;;;;;3.47;3.17;;;;;;;;;;5097345;28;20218;-81
2023/07/10 09:57:17;;;;;;;2.88;2.67;;;;;;;;;;5106106;28;20682;-81
2023/07/10 09:59:49;;;;;;;2.92;2.58;;;;;;;;;;5098871;28;20670;-81
2023/07/10 10:02:20;;;;;;;3.15;2.78;;;;;;;;;;5101962;28;20228;-81
2023/07/10 10:04:52;;;;;;;3.33;2.63;;;;;;;;;;5106363;28;20667;-81
2023/07/10 10:07:22;;;;;;;2.70;2.30;;;;;;;;;;5105790;28;20231;-81
2023/07/10 10:10:02;;;;;;;2.70;2.50;;;;;;;;;;5092875;28;20214;-81
2023/07/10 10:12:32;;;;;;;2.42;2.20;;;;;;;;;;5094794;28;20567;-81
2023/07/10 10:15:00;;;;;;;2.67;2.47;;;;;;;;;;5103544;28;20204;-82
2023/07/10 10:17:29;;;;;;;4.28;2.40;;;;;;;;;;5106115;28;20215;-82
2023/07/10 10:19:57;;;;;;;2.83;2.63;;;;;;;;;;5102202;28;20592;-81
2023/07/10 10:22:29;;;;;;;2.75;2.55;;;;;;;;;;5095566;28;20231;-82
2023/07/10 10:24:56;;;;;;;4.35;2.70;;;;;;;;;;5093151;28;20305;-81
2023/07/10 10:27:31;;;;;;;2.70;2.50;;;;;;;;;;5105974;28;20204;-81
2023/07/10 10:30:21;;;;;;;2.88;2.55;;;;;;;;;;5092127;28;20196;-81
2023/07/10 10:32:51;;;;;;;2.25;2.15;;;;;;;;;;5101264;28;20286;-82
2023/07/10 10:35:23;;;;;;;4.13;2.30;;;;;;;;;;5110244;28;20200;-81
2023/07/10 10:38:03;;;;;;;2.03;1.92;;;;;;;;;;5102501;28;20203;-81
2023/07/10 10:40:38;;;;;;;6.18;2.80;;;;;;;;;;5098976;28;20218;-82
2023/07/10 10:43:23;;;;;;;2.60;2.40;;;;;;;;;;5098921;28;20235;-81
2023/07/10 10:45:53;;;;;;;2.30;2.20;;;;;;;;;;5102630;28;20196;-82
2023/07/10 10:48:24;;;;;;;3.17;2.88;;;;;;;;;;5105393;28;20197;-81
2023/07/10 10:50:57;;;;;;;2.97;2.78;;;;;;;;;;5103647;28;20258;-81
2023/07/10 10:53:35;;;;;;;3.05;2.75;;;;;;;;;;5093238;28;20197;-82
2023/07/10 10:56:11;;;;;;;2.70;2.50;;;;;;;;;;5105775;28;20579;-83
2023/07/10 10:58:46;;;;;;;4.95;2.47;;;;;;;;;;5112239;28;20214;-81
2023/07/10 11:01:40;;;;;;;4.45;2.28;;;;;;;;;;5112315;28;20215;-82
2023/07/10 11:04:15;;;;;;;2.45;2.25;;;;;;;;;;5098269;28;20218;-81
2023/07/10 11:06:47;;;;;;;4.47;2.67;;;;;;;;;;5103887;28;20207;-82
2023/07/10 11:09:18;;;;;;;3.13;2.83;;;;;;;;;;5105080;28;20633;-81
2023/07/10 11:11:45;;;;;;;2.65;2.45;;;;;;;;;;5101127;28;20206;-81
2023/07/10 11:14:14;;;;;;;2.70;2.50;;;;;;;;;;5095126;28;20552;-82
2023/07/10 11:16:42;;;;;;;2.55;2.35;;;;;;;;;;5091667;28;20257;-82
2023/07/10 11:19:16;;;;;;;4.22;2.35;;;;;;;;;;5091582;28;20203;-82
2023/07/10 11:21:43;;;;;;;2.60;2.40;;;;;;;;;;5103475;28;20275;-81
2023/07/10 11:24:17;;;;;;;3.03;2.40;;;;;;;;;;5097799;28;20199;-82
2023/07/10 11:26:44;;;;;;;3.30;2.35;;;;;;;;;;5111658;28;20199;-82
2023/07/10 11:29:29;;;;;;;2.85;2.53;;;;;;;;;;5096315;28;20207;-82
2023/07/10 11:31:57;;;;;;;2.70;2.50;;;;;;;;;;5097724;28;20207;-82
2023/07/10 11:34:49;;;;;;;2.72;2.47;;;;;;;;;;5111258;28;20196;-82
2023/07/10 11:38:06;;;;;;;3.20;2.50;;;;;;;;;;5097703;28;20234;-82
2023/07/10 11:40:45;;;;;;;2.90;2.10;;;;;;;;;;5076806;28;20286;-81
2023/07/10 11:43:57;;;;;;;2.53;2.33;;;;;;;;;;5111258;28;20223;-82
2023/07/10 11:46:30;;;;;;;2.65;2.45;;;;;;;;;;5098130;28;20207;-82
2023/07/10 11:49:09;;;;;;;4.43;2.38;;;;;;;;;;5102969;28;20282;-82
2023/07/10 11:51:39;;;;;;;2.40;2.20;;;;;;;;;;5104583;28;20189;-82
2023/07/10 11:54:31;;;;;;;2.60;2.40;;;;;;;;;;5101349;28;20200;-82
2023/07/10 11:57:06;;;;;;;4.43;2.40;;;;;;;;;;5090304;28;20574;-82
2023/07/10 11:59:34;;;;;;;2.20;2.10;;;;;;;;;;5104242;28;20285;-81
2023/07/10 12:02:01;;;;;;;2.20;2.10;;;;;;;;;;5099285;28;20215;-82
2023/07/10 12:04:29;;;;;;;2.70;2.50;;;;;;;;;;5097933;28;20204;-82
2023/07/10 12:06:58;;;;;;;2.88;1.90;;;;;;;;;;5110958;28;20210;-82
2023/07/10 12:09:25;;;;;;;2.65;2.45;;;;;;;;;;5094550;28;20200;-82
2023/07/10 12:11:56;;;;;;;1.85;1.75;;;;;;;;;;5100791;28;20237;-82
2023/07/10 12:14:24;;;;;;;1.98;1.88;;;;;;;;;;5106872;28;20228;-82
2023/07/10 12:16:54;;;;;;;2.20;2.10;;;;;;;;;;5090514;28;20196;-82
2023/07/10 12:19:27;;;;;;;3.13;2.83;;;;;;;;;;5109155;28;20210;-82
2023/07/10 12:21:54;;;;;;;2.60;2.40;;;;;;;;;;5111251;28;20224;-82
2023/07/10 12:24:21;;;;;;;2.85;2.38;;;;;;;;;;5100726;28;20593;-82
2023/07/10 12:26:52;;;;;;;3.17;2.40;;;;;;;;;;5102213;28;20219;-83
2023/07/10 12:29:18;;;;;;;2.47;2.28;;;;;;;;;;5108391;28;20686;-82
2023/07/10 12:31:47;;;;;;;2.53;2.30;;;;;;;;;;5107720;28;20203;-82
2023/07/10 12:34:20;;;;;;;3.00;2.65;;;;;;;;;;5094871;28;20196;-82
2023/07/10 12:36:50;;;;;;;3.50;2.33;;;;;;;;;;5094384;28;20258;-82
2023/07/10 12:39:17;;;;;;;5.70;2.50;;;;;;;;;;5102917;28;20198;-82
2023/07/10 12:41:46;;;;;;;2.30;2.10;;;;;;;;;;5112762;28;20215;-82
2023/07/10 12:44:19;;;;;;;2.63;2.42;;;;;;;;;;5094655;28;20211;-82
2023/07/10 12:46:47;;;;;;;2.42;2.22;;;;;;;;;;5107819;28;20207;-81
2023/07/10 12:49:15;;;;;;;2.00;1.90;;;;;;;;;;5104523;28;20231;-82
2023/07/10 12:51:47;;;;;;;2.35;2.15;;;;;;;;;;5100590;28;20206;-82
2023/07/10 12:54:20;;;;;;;3.28;2.30;;;;;;;;;;5102902;28;20200;-81
2023/07/10 12:56:47;;;;;;;2.30;2.20;;;;;;;;;;5099633;28;20200;-81
2023/07/10 12:59:19;;;;;;;3.35;2.45;;;;;;;;;;5101418;28;20208;-82
2023/07/10 13:01:52;;;;;;;2.13;1.98;;;;;;;;;;5113835;28;20219;-82
2023/07/10 13:04:22;;;;;;;3.17;2.25;;;;;;;;;;5113828;28;20211;-81
2023/07/10 13:07:00;;;;;;;2.50;2.30;;;;;;;;;;5101997;28;20200;-82
2023/07/10 13:09:27;;;;;;;2.78;2.50;;;;;;;;;;5100614;28;20261;-82
2023/07/10 13:11:56;;;;;;;2.40;2.20;;;;;;;;;;5104867;28;20231;-82
2023/07/10 13:14:26;;;;;;;2.60;2.40;;;;;;;;;;5107495;28;20196;-82
2023/07/10 13:16:55;;;;;;;3.45;2.75;;;;;;;;;;5104784;28;20690;-81
2023/07/10 13:19:22;;;;;;;1.95;1.85;;;;;;;;;;5109891;28;20579;-81
2023/07/10 13:21:48;;;;;;;2.10;2.00;;;;;;;;;;5093427;28;20216;-81
2023/07/10 13:24:15;;;;;;;2.50;2.30;;;;;;;;;;5111657;28;20196;-81
2023/07/10 13:26:44;;;;;;;3.00;2.70;;;;;;;;;;5102581;28;20200;-82
2023/07/10 13:29:15;;;;;;;2.58;2.38;;;;;;;;;;5099402;28;20199;-82
2023/07/10 13:31:42;;;;;;;2.53;2.33;;;;;;;;;;5100883;28;20755;-81
2023/07/10 13:34:12;;;;;;;2.05;1.95;;;;;;;;;;5092632;28;20581;-82
2023/07/10 13:36:40;;;;;;;2.60;2.40;;;;;;;;;;5106837;28;20234;-81
2023/07/10 13:39:16;;;;;;;2.53;2.33;;;;;;;;;;5093576;28;20603;-81
2023/07/10 13:41:43;;;;;;;2.50;2.40;;;;;;;;;;5093402;28;20200;-82
2023/07/10 13:44:10;;;;;;;2.60;2.40;;;;;;;;;;5093376;28;20208;-82
2023/07/10 13:46:38;;;;;;;2.92;2.30;;;;;;;;;;5109222;28;20206;-82
2023/07/10 13:49:06;;;;;;;2.85;2.65;;;;;;;;;;5104076;28;20235;-82
2023/07/10 13:51:35;;;;;;;9.65;2.85;;;;;;;;;;5106840;28;20200;-81
2023/07/10 13:54:02;;;;;;;3.88;2.83;;;;;;;;;;5102965;28;20210;-81
2023/07/10 13:56:31;;;;;;;3.60;2.78;;;;;;;;;;5110313;28;20914;-81
2023/07/10 13:58:58;;;;;;;2.67;2.47;;;;;;;;;;5093055;28;20207;-82
2023/07/10 14:01:25;;;;;;;3.28;2.97;;;;;;;;;;5106972;28;20204;-82
2023/07/10 14:03:53;;;;;;;3.65;3.13;;;;;;;;;;5092605;28;20228;-82
2023/07/10 14:06:33;;;;;;;3.13;2.92;;;;;;;;;;5111259;28;20199;-81
2023/07/10 14:09:04;;;;;;;3.45;3.15;;;;;;;;;;5099881;28;20211;-82
2023/07/10 14:11:31;;;;;;;3.40;3.10;;;;;;;;;;5092825;28;20637;-82
2023/07/10 14:13:58;;;;;;;7.05;4.43;;;;;;;;;;5092732;28;20614;-81
2023/07/10 14:16:26;;;;;;;5.75;4.60;;;;;;;;;;5105891;28;20200;-82
2023/07/10 14:18:53;;;;;;;5.57;3.42;;;;;;;;;;5106414;28;20195;-82
2023/07/10 14:21:21;;;;;;;4.28;3.80;;;;;;;;;;5092590;28;20670;-81
2023/07/10 14:23:48;;;;;;;4.18;3.70;;;;;;;;;;5107086;28;20242;-82
2023/07/10 14:26:20;;;;;;;4.25;3.88;;;;;;;;;;5104191;28;20211;-82
2023/07/10 14:28:48;;;;;;;3.55;2.97;;;;;;;;;;5092195;28;20210;-82
2023/07/10 14:31:15;;;;;;;3.60;3.30;;;;;;;;;;5101602;28;20211;-82
2023/07/10 14:33:42;;;;;;;3.80;3.50;;;;;;;;;;5096157;28;20203;-81
2023/07/10 14:36:17;;;;;;;3.38;2.95;;;;;;;;;;5102095;28;20196;-82
2023/07/10 14:38:44;;;;;;;3.50;3.03;;;;;;;;;;5107372;28;20199;-82
2023/07/10 14:41:22;;;;;;;4.32;2.85;;;;;;;;;;5092511;28;20205;-82
2023/07/10 14:43:49;;;;;;;3.67;3.38;;;;;;;;;;5094854;28;21217;-82
2023/07/10 14:46:17;;;;;;;2.95;2.75;;;;;;;;;;5099555;28;20199;-81
2023/07/10 14:48:45;;;;;;;2.97;2.75;;;;;;;;;;5092634;28;20282;-82
2023/07/10 14:51:14;;;;;;;3.13;2.88;;;;;;;;;;5089405;28;20200;-82
2023/07/10 14:53:41;;;;;;;4.05;3.70;;;;;;;;;;5104666;28;20210;-81
2023/07/10 14:56:14;;;;;;;4.20;3.40;;;;;;;;;;5108364;28;20199;-82